Time;durP1;ratioP1;P1;durP2;ratioP2;P2;SDS_P1;SDS_P2;PMS_P1;PMS_P2;Temp;Humidity;BMP_temperature;BMP_pressure;BME280_temperature;BME280_humidity;BME280_pressure;Samples;Min_cycle;Max_cycle;Signal;HPM_P1;HPM_P2
2022/12/02 03:50:13;;;;;;;13.60;8.03;;;;;;;4.62;85.33;102377.48;1784306;80;21054;-50
2022/12/02 03:52:41;;;;;;;15.35;7.97;;;;;;;4.91;83.08;102377.47;1772249;80;21025;-51
2022/12/02 03:55:09;;;;;;;13.85;7.70;;;;;;;5.03;82.34;102381.23;1764429;80;21599;-51
2022/12/02 03:57:35;;;;;;;14.90;7.03;;;;;;;5.11;81.88;102372.83;1766311;80;21548;-50
2022/12/02 04:00:04;;;;;;;17.25;6.97;;;;;;;5.18;81.47;102381.60;1769836;80;21037;-51
2022/12/02 04:02:32;;;;;;;23.45;8.45;;;;;;;5.24;81.21;102380.06;1755526;80;21031;-51
2022/12/02 04:05:00;;;;;;;17.37;6.87;;;;;;;5.26;81.24;102377.51;1764788;80;21548;-51
2022/12/02 04:07:27;;;;;;;18.85;6.78;;;;;;;5.34;81.08;102377.28;1763616;80;21031;-53
2022/12/02 04:09:53;;;;;;;11.00;7.42;;;;;;;5.39;80.69;102373.13;1762366;80;21058;-51
2022/12/02 04:12:20;;;;;;;19.52;7.25;;;;;;;5.44;80.41;102378.00;1770114;80;21085;-50
2022/12/02 04:14:47;;;;;;;14.35;6.45;;;;;;;5.47;80.14;102371.19;1761447;80;21541;-51
2022/12/02 04:17:14;;;;;;;14.83;6.78;;;;;;;5.53;80.14;102370.45;1784728;80;21010;-52
2022/12/02 04:19:40;;;;;;;10.40;5.55;;;;;;;5.59;80.05;102366.32;1785060;80;21530;-50
2022/12/02 04:22:07;;;;;;;12.40;5.75;;;;;;;5.69;79.92;102372.56;1768223;80;20999;-50
2022/12/02 04:24:33;;;;;;;20.70;7.22;;;;;;;5.74;79.66;102363.23;1767880;80;21078;-51
2022/12/02 04:27:00;;;;;;;17.37;7.05;;;;;;;5.79;79.19;102365.48;1760658;80;21018;-51
2022/12/02 04:29:27;;;;;;;20.40;7.05;;;;;;;5.80;78.88;102369.83;1741255;81;21050;-51
2022/12/02 04:31:53;;;;;;;15.32;6.22;;;;;;;5.81;78.75;102372.00;1752987;80;21034;-51
2022/12/02 04:34:20;;;;;;;14.70;7.03;;;;;;;5.84;78.85;102368.21;1750602;80;21038;-50
2022/12/02 04:36:47;;;;;;;12.78;6.05;;;;;;;5.87;78.73;102362.72;1762649;80;21042;-51
2022/12/02 04:39:13;;;;;;;14.58;5.95;;;;;;;5.91;78.75;102364.95;1756948;80;21031;-50
2022/12/02 04:41:40;;;;;;;19.27;6.42;;;;;;;5.95;78.58;102361.18;1752942;80;21636;-51
2022/12/02 04:44:06;;;;;;;14.90;6.20;;;;;;;5.97;78.50;102365.08;1763437;80;21082;-51
2022/12/02 04:46:33;;;;;;;12.63;5.65;;;;;;;6.01;78.71;102369.06;1777834;80;21065;-51
2022/12/02 04:48:59;;;;;;;15.30;6.30;;;;;;;6.09;78.53;102372.69;1766977;80;21027;-51
2022/12/02 04:51:26;;;;;;;16.25;6.60;;;;;;;6.11;78.40;102360.67;1757434;80;20986;-51
2022/12/02 04:53:53;;;;;;;13.22;6.67;;;;;;;6.16;78.57;102359.05;1748172;80;21042;-51
2022/12/02 04:56:20;;;;;;;19.65;7.25;;;;;;;6.23;78.93;102357.47;1758117;80;21039;-51
2022/12/02 04:58:47;;;;;;;13.53;5.45;;;;;;;6.35;79.39;102356.02;1755083;80;21047;-51
2022/12/02 05:01:14;;;;;;;14.58;5.87;;;;;;;6.48;79.87;102350.27;1745241;81;21027;-51
2022/12/02 05:03:40;;;;;;;14.30;5.78;;;;;;;6.64;80.19;102350.55;1783852;80;21073;-51
2022/12/02 05:06:07;;;;;;;12.60;5.50;;;;;;;6.77;80.28;102344.78;1768298;80;21889;-51
2022/12/02 05:08:33;;;;;;;12.43;5.58;;;;;;;6.89;80.36;102339.42;1754048;80;21074;-51
2022/12/02 05:11:01;;;;;;;9.20;5.15;;;;;;;7.02;80.38;102341.81;1761858;80;21471;-51
2022/12/02 05:13:27;;;;;;;14.18;7.05;;;;;;;7.13;80.36;102335.97;1770221;80;21050;-51
2022/12/02 05:15:54;;;;;;;11.73;6.28;;;;;;;7.22;80.27;102339.14;1748312;80;21130;-51
2022/12/02 05:18:20;;;;;;;11.93;4.75;;;;;;;7.31;80.15;102347.08;1767343;80;21057;-51
2022/12/02 05:20:47;;;;;;;13.65;6.25;;;;;;;7.38;80.00;102342.02;1738859;80;21027;-51
2022/12/02 05:23:14;;;;;;;9.63;5.33;;;;;;;7.45;79.80;102349.46;1740016;80;21645;-51
2022/12/02 05:25:41;;;;;;;12.40;5.85;;;;;;;7.51;79.60;102356.03;1778971;80;21003;-51
2022/12/02 05:28:07;;;;;;;10.05;5.45;;;;;;;7.57;79.47;102359.14;1768611;80;20955;-51
2022/12/02 05:30:34;;;;;;;9.40;5.17;;;;;;;7.63;79.25;102364.00;1748164;81;21050;-51
2022/12/02 05:33:00;;;;;;;15.08;6.00;;;;;;;7.66;79.15;102374.42;1764058;80;21012;-51
2022/12/02 05:35:27;;;;;;;11.03;5.45;;;;;;;7.72;78.98;102373.64;1776960;80;21489;-51
2022/12/02 05:37:54;;;;;;;11.12;4.62;;;;;;;7.77;78.69;102376.73;1750847;80;21039;-51
2022/12/02 05:40:22;;;;;;;9.38;4.65;;;;;;;7.82;78.46;102371.63;1756779;80;21032;-51
2022/12/02 05:42:48;;;;;;;10.45;5.05;;;;;;;7.84;78.07;102373.41;1757883;80;21061;-51
2022/12/02 05:45:19;;;;;;;10.53;5.55;;;;;;;7.87;77.90;102377.32;1768209;80;21109;-51
2022/12/02 05:47:53;;;;;;;7.67;4.70;;;;;;;7.88;77.60;102380.38;1652279;85;21559;-51
2022/12/02 05:50:20;;;;;;;8.90;4.28;;;;;;;7.92;77.58;102384.75;1630890;86;21122;-51
2022/12/02 05:52:49;;;;;;;9.90;5.03;;;;;;;7.95;77.29;102384.81;1630949;85;21075;-51
2022/12/02 05:55:18;;;;;;;10.85;4.92;;;;;;;7.99;77.08;102386.59;1623929;88;21063;-51
2022/12/02 05:57:45;;;;;;;9.60;5.22;;;;;;;8.01;76.87;102386.20;1620859;88;21040;-51
2022/12/02 06:00:22;;;;;;;9.50;4.58;;;;;;;8.04;76.63;102383.63;1620967;87;21099;-51
2022/12/02 06:02:58;;;;;;;10.13;4.22;;;;;;;8.05;76.41;102385.39;1620013;88;21071;-51
2022/12/02 06:05:32;;;;;;;6.35;4.28;;;;;;;8.07;76.25;102387.58;1622798;87;21485;-51
2022/12/02 06:08:21;;;;;;;7.72;4.17;;;;;;;8.12;76.03;102387.62;1621211;87;21114;-52
2022/12/02 06:10:54;;;;;;;5.45;3.60;;;;;;;8.15;75.74;102384.67;1622622;88;21570;-51
2022/12/02 06:13:26;;;;;;;11.20;3.95;;;;;;;8.15;75.33;102382.08;1594885;89;21631;-51
2022/12/02 06:15:52;;;;;;;6.33;3.77;;;;;;;8.14;75.16;102384.20;1579932;89;21105;-52
2022/12/02 06:18:22;;;;;;;7.45;3.72;;;;;;;8.14;75.09;102382.91;1568992;89;21037;-51
2022/12/02 06:20:56;;;;;;;9.75;3.90;;;;;;;8.16;75.06;102381.20;1595285;89;21062;-52
2022/12/02 06:23:25;;;;;;;8.33;4.08;;;;;;;8.17;74.69;102386.86;1612037;87;21463;-51
2022/12/02 06:25:52;;;;;;;7.30;3.87;;;;;;;8.16;74.57;102379.91;1583521;88;21127;-51
2022/12/02 06:28:34;;;;;;;8.53;4.35;;;;;;;8.17;74.48;102380.79;1591969;89;21101;-51
2022/12/02 06:31:27;;;;;;;7.05;3.65;;;;;;;8.19;74.32;102389.46;1584704;89;21157;-51
2022/12/02 06:33:53;;;;;;;6.22;3.58;;;;;;;8.22;74.19;102391.66;1570641;89;21067;-51
2022/12/02 06:36:24;;;;;;;8.38;4.35;;;;;;;8.23;74.06;102394.72;1591410;89;21576;-51
2022/12/02 06:38:56;;;;;;;10.25;3.85;;;;;;;8.23;74.01;102397.31;1585518;89;21079;-51
2022/12/02 06:41:28;;;;;;;7.28;3.27;;;;;;;8.28;73.78;102396.53;1581769;90;21054;-51
2022/12/02 06:46:44;;;;;;;9.40;3.62;;;;;;;8.23;73.53;102399.02;1656272;86;21088;-51
2022/12/02 06:49:27;;;;;;;7.47;3.40;;;;;;;8.22;73.30;102396.84;1657062;86;21050;-51
2022/12/02 06:51:59;;;;;;;7.97;3.17;;;;;;;8.21;73.27;102397.72;1650219;86;21139;-51
2022/12/02 06:54:29;;;;;;;7.50;2.70;;;;;;;8.19;73.18;102397.23;1657210;86;21025;-51
2022/12/02 06:56:57;;;;;;;8.65;3.58;;;;;;;8.20;73.07;102398.55;1655811;86;21069;-51
2022/12/02 06:59:24;;;;;;;5.05;3.60;;;;;;;8.19;73.07;102395.95;1657948;86;21094;-51
2022/12/02 07:01:55;;;;;;;7.25;3.55;;;;;;;8.22;72.92;102405.08;1657419;86;21109;-51
2022/12/02 07:04:33;;;;;;;6.22;3.62;;;;;;;8.23;72.71;102406.39;1655766;86;21026;-51
2022/12/02 07:07:19;;;;;;;7.67;3.90;;;;;;;8.23;72.71;102406.39;1629077;87;21090;-51
2022/12/02 07:09:53;;;;;;;6.80;3.90;;;;;;;8.19;72.81;102405.90;1612907;87;21022;-51
2022/12/02 07:12:36;;;;;;;10.88;3.98;;;;;;;8.22;72.51;102416.30;1546381;93;21137;-51
2022/12/02 07:15:20;;;;;;;8.08;3.50;;;;;;;8.21;72.43;102419.76;1502476;95;21624;-51
2022/12/02 07:17:47;;;;;;;6.85;3.65;;;;;;;8.21;72.43;102416.28;1507345;95;21655;-51
2022/12/02 07:20:34;;;;;;;5.62;3.98;;;;;;;8.22;72.13;102417.59;1507481;94;21596;-52
2022/12/02 07:23:22;;;;;;;6.92;3.45;;;;;;;8.19;71.92;102418.86;1508249;94;21844;-50
2022/12/02 07:25:53;;;;;;;5.30;3.30;;;;;;;8.16;71.83;102418.80;1510228;93;21149;-51
2022/12/02 07:28:25;;;;;;;7.58;3.60;;;;;;;8.10;71.70;102414.83;1505108;93;21555;-51
2022/12/02 07:30:59;;;;;;;8.68;3.65;;;;;;;8.08;71.75;102413.05;1517326;93;21073;-51
2022/12/02 07:33:26;;;;;;;8.58;4.28;;;;;;;8.08;71.63;102403.56;1514843;93;21125;-53
2022/12/02 07:35:52;;;;;;;7.45;3.22;;;;;;;8.05;71.34;102413.91;1501680;94;21580;-51
2022/12/02 07:38:19;;;;;;;7.92;3.37;;;;;;;7.99;71.36;102409.93;1514520;94;22604;-51
2022/12/02 07:40:45;;;;;;;8.05;3.70;;;;;;;7.97;71.39;102419.41;1511510;93;21198;-50
2022/12/02 07:43:12;;;;;;;5.65;3.15;;;;;;;7.95;71.15;102424.99;1489145;95;21170;-50
2022/12/02 15:39:29;;;;;;;10.68;7.40;;;;;;;4.47;75.23;102592.30;1771684;80;21635;-58
2022/12/02 15:41:56;;;;;;;9.08;6.08;;;;;;;4.74;73.51;102594.03;1691410;83;21102;-57
2022/12/02 15:44:23;;;;;;;14.18;7.53;;;;;;;4.84;72.85;102602.51;1695733;83;21102;-58
2022/12/02 15:46:49;;;;;;;14.98;8.48;;;;;;;4.89;72.60;102600.96;1689537;83;21015;-59
2022/12/02 15:49:16;;;;;;;13.58;8.50;;;;;;;5.00;72.12;102605.56;1705379;82;20986;-58
2022/12/02 15:51:42;;;;;;;14.25;8.30;;;;;;;5.07;71.75;102597.20;1703295;83;21590;-58
2022/12/02 15:54:09;;;;;;;12.85;8.05;;;;;;;5.15;71.34;102600.88;1701800;83;21133;-58
2022/12/02 15:56:35;;;;;;;12.13;8.35;;;;;;;5.22;70.98;102602.78;1690297;83;21530;-58
2022/12/02 15:59:02;;;;;;;8.45;6.67;;;;;;;5.29;70.82;102604.73;1693971;83;21058;-57
2022/12/02 16:01:29;;;;;;;11.22;5.85;;;;;;;5.35;70.34;102604.91;1694520;83;21086;-57
2022/12/02 16:03:56;;;;;;;9.78;6.60;;;;;;;5.40;70.06;102608.06;1743304;81;21534;-57
2022/12/02 16:06:23;;;;;;;8.78;6.22;;;;;;;5.44;69.72;102612.92;1691256;82;21105;-60
2022/12/02 16:08:50;;;;;;;8.85;7.10;;;;;;;5.48;69.62;102614.77;1703186;83;21048;-57
2022/12/02 16:11:17;;;;;;;10.70;7.45;;;;;;;5.53;69.43;102614.45;1690770;83;21055;-58
2022/12/02 16:13:45;;;;;;;9.10;5.75;;;;;;;5.62;69.11;102606.98;1690036;83;21074;-57
2022/12/02 16:16:11;;;;;;;9.65;6.97;;;;;;;5.69;68.70;102609.77;1719492;82;21529;-58
2022/12/02 16:18:38;;;;;;;8.65;5.50;;;;;;;5.76;68.36;102610.81;1701172;83;21098;-58
2022/12/02 16:21:05;;;;;;;8.75;6.12;;;;;;;5.77;68.08;102611.25;1716388;83;21089;-57
2022/12/02 16:23:32;;;;;;;9.45;5.58;;;;;;;5.77;67.71;102611.25;1715654;83;21058;-58
2022/12/02 16:25:58;;;;;;;8.90;5.60;;;;;;;5.78;67.42;102619.06;1701564;83;21050;-58
2022/12/02 16:28:25;;;;;;;7.53;5.78;;;;;;;5.79;67.23;102613.45;1694510;83;21082;-58
2022/12/02 16:30:51;;;;;;;7.10;6.17;;;;;;;5.78;67.32;102619.47;1694308;83;21042;-58
2022/12/02 16:33:18;;;;;;;6.45;4.95;;;;;;;5.77;67.19;102616.42;1710112;84;21051;-58
2022/12/02 16:35:45;;;;;;;5.62;4.28;;;;;;;5.75;67.13;102617.67;1699113;83;21051;-57
2022/12/02 16:38:11;;;;;;;8.20;5.25;;;;;;;5.76;67.20;102614.69;1696503;83;21078;-57
2022/12/02 16:40:38;;;;;;;6.25;4.37;;;;;;;5.77;67.23;102621.58;1717387;83;21047;-57
2022/12/02 16:43:05;;;;;;;7.22;4.87;;;;;;;5.74;66.97;102617.23;1715874;83;21549;-57
2022/12/02 16:45:32;;;;;;;11.78;5.60;;;;;;;5.76;66.92;102626.31;1715666;83;21106;-58
2022/12/02 16:47:59;;;;;;;9.25;5.28;;;;;;;5.72;67.02;102628.34;1711507;83;21474;-57
2022/12/02 16:50:26;;;;;;;6.90;5.35;;;;;;;5.72;67.12;102628.34;1690092;83;21106;-57
2022/12/02 16:52:53;;;;;;;7.17;4.65;;;;;;;5.72;66.72;102631.81;1683927;83;21058;-58
2022/12/02 16:55:20;;;;;;;6.47;5.33;;;;;;;5.71;66.73;102634.33;1690774;84;21542;-58
2022/12/02 16:57:47;;;;;;;7.20;5.35;;;;;;;5.71;66.74;102636.91;1713179;83;21058;-58
2022/12/02 17:00:15;;;;;;;6.97;5.10;;;;;;;5.71;66.54;102635.21;1707203;83;21070;-58
2022/12/02 17:02:42;;;;;;;7.65;4.97;;;;;;;5.69;66.45;102636.00;1713245;83;21466;-57
2022/12/02 17:05:09;;;;;;;10.72;5.20;;;;;;;5.69;66.53;102633.41;1693250;83;21114;-57
2022/12/02 17:07:36;;;;;;;8.30;5.33;;;;;;;5.67;66.45;102637.66;1690310;84;21055;-58
2022/12/02 17:10:04;;;;;;;9.30;6.95;;;;;;;5.69;66.39;102639.87;1713370;84;21545;-57
2022/12/02 17:12:31;;;;;;;11.73;7.80;;;;;;;5.71;66.30;102644.66;1687319;83;21605;-57
2022/12/02 17:14:58;;;;;;;13.80;9.23;;;;;;;5.71;66.29;102647.25;1704811;83;21069;-58
2022/12/02 17:17:25;;;;;;;14.58;8.10;;;;;;;5.72;66.32;102643.84;1715218;83;21055;-58
2022/12/02 17:19:51;;;;;;;13.20;7.60;;;;;;;5.72;66.30;102645.14;1701346;84;21068;-58
2022/12/02 17:22:18;;;;;;;9.65;6.47;;;;;;;5.72;66.25;102643.84;1699109;83;21534;-57
2022/12/02 17:24:45;;;;;;;10.38;6.30;;;;;;;5.74;66.14;102642.18;1703276;83;21056;-57
2022/12/02 17:27:11;;;;;;;9.53;6.55;;;;;;;5.72;66.13;102645.14;1702329;83;21103;-58
2022/12/02 17:29:38;;;;;;;7.87;6.25;;;;;;;5.75;65.84;102639.63;1698374;83;21054;-57
2022/12/02 17:32:04;;;;;;;12.35;6.67;;;;;;;5.74;65.59;102644.77;1715478;83;21070;-57
2022/12/02 17:34:31;;;;;;;11.70;6.67;;;;;;;5.73;65.58;102641.70;1706537;83;21086;-58
2022/12/02 17:36:58;;;;;;;9.70;6.47;;;;;;;5.72;65.51;102644.73;1711747;83;21078;-58
2022/12/02 17:39:24;;;;;;;13.28;7.03;;;;;;;5.72;65.59;102643.84;1701997;83;21030;-58
2022/12/02 17:41:51;;;;;;;9.08;6.17;;;;;;;5.73;65.38;102641.70;1705480;83;21086;-58
2022/12/02 17:44:17;;;;;;;12.15;6.55;;;;;;;5.73;65.35;102636.54;1706074;84;21043;-57
2022/12/02 17:46:44;;;;;;;8.95;6.58;;;;;;;5.70;65.24;102639.05;1704920;83;21024;-58
2022/12/02 17:49:11;;;;;;;7.87;5.92;;;;;;;5.66;65.24;102641.09;1687437;84;21531;-57
2022/12/02 17:51:37;;;;;;;7.35;6.47;;;;;;;5.63;65.29;102638.41;1743626;80;21022;-57
2022/12/02 17:54:04;;;;;;;9.43;6.47;;;;;;;5.61;65.35;102636.20;1758776;80;21037;-57
2022/12/02 17:56:31;;;;;;;8.48;5.90;;;;;;;5.60;65.16;102642.22;1774324;80;21022;-57
2022/12/02 17:58:57;;;;;;;7.95;5.95;;;;;;;5.57;65.04;102638.23;1776494;80;21031;-57
2022/12/02 18:01:24;;;;;;;9.05;6.25;;;;;;;5.53;64.77;102637.69;1777119;79;21089;-57
2022/12/02 18:03:50;;;;;;;9.88;7.42;;;;;;;5.49;64.94;102639.73;1694611;83;21084;-58
2022/12/02 18:06:17;;;;;;;11.03;6.80;;;;;;;5.48;64.89;102636.70;1714836;82;21039;-57
2022/12/02 18:08:43;;;;;;;10.23;7.00;;;;;;;5.51;64.74;102636.37;1716875;81;21077;-57
2022/12/02 18:11:10;;;;;;;9.13;6.53;;;;;;;5.51;64.61;102636.78;1718656;82;21045;-57
2022/12/02 18:13:37;;;;;;;9.70;7.75;;;;;;;5.47;64.56;102634.94;1699610;83;21777;-57
2022/12/02 18:16:06;;;;;;;8.20;6.55;;;;;;;5.45;64.71;102637.89;1694709;82;21090;-58
2022/12/02 18:18:33;;;;;;;9.35;6.45;;;;;;;5.46;64.83;102635.34;1708974;83;21053;-57
2022/12/02 18:20:59;;;;;;;10.00;5.78;;;;;;;5.46;64.76;102637.08;1710675;83;21038;-57
2022/12/02 18:23:26;;;;;;;9.40;5.97;;;;;;;5.43;64.74;102636.56;1695416;83;21102;-57
2022/12/02 18:25:54;;;;;;;10.93;6.15;;;;;;;5.40;64.69;102642.06;1680827;83;21079;-57
2022/12/02 18:28:20;;;;;;;9.83;6.42;;;;;;;5.39;64.89;102640.30;1687226;83;21121;-57
2022/12/02 18:30:47;;;;;;;8.50;6.75;;;;;;;5.40;64.97;102644.64;1699133;83;21102;-58
2022/12/02 18:33:14;;;;;;;12.00;6.08;;;;;;;5.40;64.87;102645.94;1707284;83;21114;-57
2022/12/02 18:35:40;;;;;;;11.70;6.90;;;;;;;5.38;64.79;102644.58;1702449;84;21142;-57
2022/12/02 18:38:07;;;;;;;12.88;7.22;;;;;;;5.33;64.88;102645.28;1701308;83;21119;-57
2022/12/02 18:40:34;;;;;;;9.33;6.78;;;;;;;5.29;65.23;102648.61;1697342;83;21066;-57
2022/12/02 18:43:01;;;;;;;9.50;7.22;;;;;;;5.37;64.98;102644.55;1703378;84;21550;-57
2022/12/02 18:45:27;;;;;;;10.45;8.15;;;;;;;5.38;64.78;102654.05;1694423;83;21495;-58
2022/12/02 18:47:55;;;;;;;10.20;7.05;;;;;;;5.36;64.81;102651.41;1708244;83;21085;-58
2022/12/02 18:50:22;;;;;;;7.92;6.87;;;;;;;5.35;64.92;102655.23;1711633;83;21082;-57
2022/12/02 18:52:48;;;;;;;15.93;7.85;;;;;;;5.35;64.98;102653.95;1715714;83;21545;-57
2022/12/02 18:55:16;;;;;;;12.95;7.12;;;;;;;5.36;64.97;102657.86;1701677;83;21011;-57
2022/12/02 18:57:42;;;;;;;10.30;6.80;;;;;;;5.35;64.88;102655.23;1695776;83;21023;-59
2022/12/02 19:00:12;;;;;;;12.85;8.05;;;;;;;5.35;65.02;102652.66;1676663;83;21046;-57
2022/12/02 19:02:39;;;;;;;11.38;7.53;;;;;;;5.25;65.05;102654.10;1700041;82;21071;-57
2022/12/02 19:05:07;;;;;;;10.68;7.55;;;;;;;5.26;65.17;102654.55;1731327;82;21047;-57
2022/12/02 19:07:37;;;;;;;8.45;6.78;;;;;;;5.30;65.17;102656.39;1713397;82;21521;-58
2022/12/02 19:10:05;;;;;;;11.50;6.90;;;;;;;5.31;65.14;102661.14;1708733;82;21023;-57
2022/12/02 19:12:32;;;;;;;9.65;6.95;;;;;;;5.30;64.89;102660.66;1762759;80;21062;-58
2022/12/02 19:14:59;;;;;;;10.28;7.60;;;;;;;5.28;65.07;102661.03;1771331;80;21077;-58
2022/12/02 19:17:25;;;;;;;8.43;7.20;;;;;;;5.28;65.06;102667.08;1756017;80;21086;-58
2022/12/02 19:19:52;;;;;;;11.95;7.65;;;;;;;5.29;65.12;102667.56;1769260;80;21069;-57
2022/12/02 19:22:18;;;;;;;10.72;7.47;;;;;;;5.32;65.13;102666.75;1761282;80;21549;-58
2022/12/02 19:24:45;;;;;;;8.95;6.53;;;;;;;5.33;65.10;102659.48;1773061;80;21026;-57
2022/12/02 19:27:12;;;;;;;9.30;7.00;;;;;;;5.34;65.00;102662.50;1757127;80;21066;-57
2022/12/02 19:29:39;;;;;;;8.03;6.70;;;;;;;5.28;65.12;102661.03;1762166;80;21105;-58
2022/12/02 19:32:05;;;;;;;10.08;7.40;;;;;;;5.31;64.91;102663.31;1770722;80;21061;-58
2022/12/02 19:34:32;;;;;;;8.08;6.50;;;;;;;5.31;65.14;102662.44;1765989;80;21576;-58
2022/12/02 19:36:58;;;;;;;9.90;7.08;;;;;;;5.32;65.06;102662.47;1770625;80;21056;-58
2022/12/02 19:39:25;;;;;;;10.85;6.58;;;;;;;5.35;65.07;102659.99;1755189;81;21524;-57
2022/12/02 19:41:51;;;;;;;10.82;7.62;;;;;;;5.35;65.00;102656.13;1763930;80;21051;-58
2022/12/02 19:44:18;;;;;;;11.48;6.58;;;;;;;5.34;65.02;102659.92;1771209;80;21061;-57
2022/12/02 19:46:45;;;;;;;9.98;7.42;;;;;;;5.34;65.09;102662.50;1769771;80;21043;-58
2022/12/02 19:49:11;;;;;;;10.78;7.30;;;;;;;5.33;65.18;102650.45;1746971;80;21042;-58
2022/12/02 19:51:38;;;;;;;9.83;7.30;;;;;;;5.34;65.46;102654.36;1721451;82;21518;-57
2022/12/02 19:54:05;;;;;;;11.00;7.83;;;;;;;5.36;65.38;102655.68;1692405;83;21082;-58
